Time;durP1;ratioP1;P1;durP2;ratioP2;P2;SDS_P1;SDS_P2;PMS_P1;PMS_P2;Temp;Humidity;BMP_temperature;BMP_pressure;BME280_temperature;BME280_humidity;BME280_pressure;Samples;Min_cycle;Max_cycle;Signal;HPM_P1;HPM_P2
2021/06/29 00:02:26;;;;;;;48.50;31.02;;;;;;;20.47;84.40;101030.89;1891493;76;21083;-60
2021/06/29 00:04:55;;;;;;;49.42;29.52;;;;;;;20.46;84.53;101024.70;1891327;76;21105;-60
2021/06/29 00:07:24;;;;;;;46.58;30.00;;;;;;;20.46;84.53;101022.02;1891403;76;21129;-60
2021/06/29 00:09:53;;;;;;;46.92;28.65;;;;;;;20.46;84.66;101018.01;1891306;76;21094;-60
2021/06/29 00:12:21;;;;;;;53.28;28.62;;;;;;;20.44;84.70;101023.47;1891287;75;21047;-60
2021/06/29 00:14:50;;;;;;;47.88;30.65;;;;;;;20.43;85.06;101024.42;1891391;76;21113;-60
2021/06/29 00:17:19;;;;;;;52.98;32.30;;;;;;;20.41;85.13;101018.34;1891415;75;21067;-60
2021/06/29 00:19:48;;;;;;;45.95;27.35;;;;;;;20.40;85.27;101019.33;1891380;76;21011;-60
2021/06/29 00:22:17;;;;;;;42.53;25.82;;;;;;;20.38;85.12;101015.92;1891361;76;21015;-60
2021/06/29 00:24:45;;;;;;;29.90;19.75;;;;;;;20.37;85.06;101023.56;1891209;76;21031;-60
2021/06/29 00:27:14;;;;;;;34.38;20.10;;;;;;;20.35;84.90;101015.30;1891363;76;21051;-60
2021/06/29 00:29:43;;;;;;;33.20;18.90;;;;;;;20.33;84.92;101014.56;1891547;76;21481;-60
2021/06/29 00:32:12;;;;;;;31.95;17.23;;;;;;;20.32;84.82;101016.37;1891482;76;21020;-60
2021/06/29 00:34:40;;;;;;;25.65;17.27;;;;;;;20.31;84.67;101013.84;1891560;75;21462;-60
2021/06/29 00:37:09;;;;;;;34.80;19.75;;;;;;;20.29;84.61;101011.27;1891352;76;21058;-60
2021/06/29 00:39:38;;;;;;;45.00;30.48;;;;;;;20.28;84.66;101006.87;1891300;76;21110;-60
2021/06/29 00:42:07;;;;;;;55.48;35.55;;;;;;;20.26;84.78;101006.14;1891295;76;21113;-60
2021/06/29 00:44:36;;;;;;;71.65;51.13;;;;;;;20.22;84.91;101005.52;1891271;75;21024;-60
2021/06/29 00:47:06;;;;;;;59.90;41.92;;;;;;;20.20;85.06;101018.16;1891508;76;21121;-60
2021/06/29 00:49:35;;;;;;;88.42;64.82;;;;;;;20.18;85.16;101013.91;1891377;75;21531;-60
2021/06/29 00:52:05;;;;;;;77.05;52.38;;;;;;;20.16;85.25;101012.68;1891420;76;21067;-60
2021/06/29 00:54:35;;;;;;;74.17;54.20;;;;;;;20.17;85.05;101014.38;1891402;76;21156;-60
2021/06/29 00:57:05;;;;;;;57.03;41.68;;;;;;;20.15;85.02;101004.77;1891565;76;21114;-60
2021/06/29 00:59:34;;;;;;;43.25;29.37;;;;;;;20.14;84.94;101013.75;1891462;76;21125;-60
2021/06/29 01:02:02;;;;;;;30.35;21.30;;;;;;;20.11;84.89;101007.31;1891448;76;21063;-59
2021/06/29 01:04:33;;;;;;;37.38;22.27;;;;;;;20.10;84.77;101012.28;1891348;76;21106;-59
2021/06/29 01:07:02;;;;;;;33.50;19.70;;;;;;;20.03;84.96;101012.75;1891497;76;21079;-60
2021/06/29 01:09:32;;;;;;;31.05;19.05;;;;;;;20.00;85.00;101010.78;1891474;76;21113;-60
2021/06/29 01:12:01;;;;;;;32.98;19.00;;;;;;;19.95;84.99;101009.77;1891582;76;21523;-60
2021/06/29 01:14:29;;;;;;;32.93;20.52;;;;;;;19.92;85.11;101014.03;1891604;75;21031;-60
2021/06/29 01:16:58;;;;;;;33.75;19.62;;;;;;;19.90;85.08;101014.63;1891374;76;21067;-60
2021/06/29 01:19:36;;;;;;;28.20;18.32;;;;;;;19.90;85.14;101022.65;1891472;76;21051;-60
2021/06/29 01:21:57;;;;;;;32.70;19.48;;;;;;;19.88;85.25;101019.20;1890372;75;21063;-60
2021/06/29 01:24:30;;;;;;;36.17;20.08;;;;;;;19.87;85.42;101021.53;1891461;76;21067;-60
2021/06/29 01:27:15;;;;;;;32.03;18.77;;;;;;;19.86;85.59;101022.02;1891212;75;21108;-60
2021/06/29 01:30:57;;;;;;;37.30;19.75;;;;;;;19.86;85.79;101014.46;1888313;75;21048;-60
2021/06/29 01:32:18;;;;;;;41.75;23.38;;;;;;;19.86;85.92;101021.14;1888497;76;21121;-60
2021/06/29 01:34:47;;;;;;;49.67;33.33;;;;;;;19.86;85.67;101020.69;1891478;76;21027;-60
2021/06/29 01:37:17;;;;;;;55.12;34.03;;;;;;;19.88;85.81;101027.23;1891465;76;21101;-60
2021/06/29 01:40:08;;;;;;;42.90;26.20;;;;;;;19.87;85.87;101024.20;1891428;76;21051;-62
2021/06/29 01:42:31;;;;;;;43.73;26.23;;;;;;;19.88;85.81;101026.38;1889589;75;21502;-60
2021/06/29 01:45:00;;;;;;;53.80;32.78;;;;;;;19.87;85.72;101036.23;1891416;76;21470;-60
2021/06/29 01:47:51;;;;;;;65.72;47.20;;;;;;;19.86;85.85;101023.36;1891461;76;21446;-60
2021/06/29 01:50:18;;;;;;;58.48;44.73;;;;;;;19.88;85.74;101027.72;1889711;75;21035;-60
2021/06/29 01:52:45;;;;;;;67.75;50.78;;;;;;;19.86;85.72;101022.02;1889997;75;21129;-60
2021/06/29 01:55:14;;;;;;;92.12;71.12;;;;;;;19.83;85.77;101016.05;1880068;76;21639;-60
2021/06/29 01:57:46;;;;;;;122.72;94.17;;;;;;;19.84;85.72;101023.08;1872826;76;21122;-60
2021/06/29 02:00:14;;;;;;;115.03;90.87;;;;;;;19.84;85.85;101027.94;1872684;76;21095;-60
2021/06/29 02:02:43;;;;;;;107.20;83.22;;;;;;;19.83;85.86;101025.40;1872759;77;21114;-60
2021/06/29 02:05:12;;;;;;;75.15;54.27;;;;;;;19.84;85.86;101027.09;1872671;77;21004;-59
2021/06/29 02:07:41;;;;;;;53.80;35.08;;;;;;;19.84;85.76;101021.74;1872835;76;21384;-60
2021/06/29 02:10:11;;;;;;;45.23;29.63;;;;;;;19.86;85.78;101030.03;1872805;77;21138;-60
2021/06/29 02:12:40;;;;;;;57.85;42.05;;;;;;;19.91;85.71;101024.34;1872759;77;21068;-60
2021/06/29 02:15:10;;;;;;;44.05;29.72;;;;;;;19.95;85.62;101028.48;1872902;76;21012;-60
2021/06/29 02:17:39;;;;;;;59.50;42.48;;;;;;;19.99;85.58;101025.98;1872835;77;21008;-60
2021/06/29 02:20:11;;;;;;;38.40;22.65;;;;;;;20.06;85.59;101027.20;1872750;76;21521;-60
2021/06/29 02:22:39;;;;;;;29.87;19.35;;;;;;;20.11;85.54;101018.84;1872703;77;21025;-60
2021/06/29 02:25:09;;;;;;;40.05;29.10;;;;;;;20.23;85.34;101018.40;1872811;77;21129;-60
2021/06/29 02:27:38;;;;;;;37.50;23.42;;;;;;;20.34;85.16;101017.09;1872791;77;21012;-62
2021/06/29 02:30:08;;;;;;;29.42;20.48;;;;;;;20.42;84.90;101014.71;1872884;76;21102;-60
2021/06/29 02:32:37;;;;;;;32.03;18.23;;;;;;;20.58;84.70;101018.88;1872730;77;21008;-61
2021/06/29 02:35:07;;;;;;;27.00;16.73;;;;;;;20.66;84.46;101019.19;1872717;77;21102;-60
2021/06/29 02:37:36;;;;;;;24.90;15.30;;;;;;;20.75;84.06;101017.14;1872793;77;21057;-60
2021/06/29 02:40:07;;;;;;;27.40;16.35;;;;;;;20.85;83.74;101016.42;1872735;77;21036;-60
2021/06/29 02:42:36;;;;;;;27.77;18.50;;;;;;;20.95;83.55;101009.36;1872755;77;21075;-60
2021/06/29 02:45:07;;;;;;;27.98;19.77;;;;;;;21.06;83.25;101013.88;1872649;76;21628;-60
2021/06/29 02:47:38;;;;;;;33.98;21.55;;;;;;;21.16;83.04;101011.69;1872706;75;21098;-60
2021/06/29 02:50:08;;;;;;;30.88;19.77;;;;;;;21.38;82.91;101009.98;1872741;77;21106;-60
2021/06/29 02:52:38;;;;;;;32.58;20.57;;;;;;;21.70;82.25;101016.77;1872885;77;21043;-61
2021/06/29 02:55:09;;;;;;;34.05;23.25;;;;;;;21.88;81.87;101018.42;1872605;76;21150;-60
2021/06/29 02:57:38;;;;;;;24.05;14.30;;;;;;;21.96;81.47;101018.63;1872690;77;21048;-60
2021/06/29 03:00:10;;;;;;;21.70;13.35;;;;;;;22.01;81.46;101017.42;1872731;76;21447;-59
2021/06/29 03:02:39;;;;;;;23.27;13.22;;;;;;;22.03;80.85;101014.96;1872710;76;21024;-60
2021/06/29 03:05:09;;;;;;;18.10;12.05;;;;;;;22.12;80.64;101018.72;1872660;76;21035;-60
2021/06/29 03:07:38;;;;;;;26.57;17.48;;;;;;;22.18;80.41;101022.22;1872599;76;21035;-60
2021/06/29 03:10:08;;;;;;;22.80;12.13;;;;;;;22.29;80.43;101019.52;1872749;77;21075;-59
2021/06/29 03:12:37;;;;;;;33.18;20.60;;;;;;;22.44;80.05;101024.57;1872751;76;21030;-60
2021/06/29 03:15:09;;;;;;;31.50;23.05;;;;;;;22.51;79.73;101023.07;1872822;76;21106;-60
2021/06/29 03:17:38;;;;;;;27.52;18.20;;;;;;;22.66;79.71;101027.12;1872678;77;21064;-61
2021/06/29 03:20:09;;;;;;;23.38;19.35;;;;;;;22.84;79.37;101026.53;1872663;76;21530;-60
2021/06/29 03:22:39;;;;;;;28.32;17.25;;;;;;;22.96;78.57;101025.45;1872796;77;21044;-59
2021/06/29 03:25:09;;;;;;;25.60;18.50;;;;;;;23.08;78.16;101029.79;1872617;77;21545;-60
2021/06/29 03:27:38;;;;;;;34.18;21.15;;;;;;;23.13;77.37;101028.90;1872780;77;21016;-61
2021/06/29 03:30:10;;;;;;;21.85;17.95;;;;;;;23.11;77.18;101018.79;1872699;76;21044;-60
2021/06/29 03:32:39;;;;;;;26.27;19.92;;;;;;;23.04;76.86;101028.36;1872908;77;21172;-60
2021/06/29 03:35:08;;;;;;;31.12;20.45;;;;;;;22.98;76.93;101020.82;1872665;76;21098;-60
2021/06/29 03:37:38;;;;;;;29.00;21.40;;;;;;;23.01;77.13;101025.06;1872790;77;21028;-60
2021/06/29 03:40:07;;;;;;;25.68;19.55;;;;;;;23.09;77.37;101025.26;1872678;77;21036;-60
2021/06/29 03:42:36;;;;;;;25.82;19.77;;;;;;;23.15;77.27;101026.09;1872672;76;21024;-61
2021/06/29 03:45:06;;;;;;;26.00;20.00;;;;;;;23.09;77.09;101020.77;1872594;77;21106;-60
2021/06/29 03:47:35;;;;;;;25.45;19.52;;;;;;;23.11;77.15;101024.63;1872774;77;21087;-60
2021/06/29 03:50:05;;;;;;;23.65;20.70;;;;;;;23.11;77.16;101023.29;1872683;77;21095;-60
2021/06/29 03:52:34;;;;;;;21.50;15.48;;;;;;;23.13;77.08;101027.56;1872729;77;21074;-60
2021/06/29 03:55:03;;;;;;;19.95;15.30;;;;;;;23.19;77.05;101030.70;1872671;77;21146;-60
2021/06/29 03:57:31;;;;;;;27.80;18.32;;;;;;;23.40;77.18;101033.31;1872525;75;21063;-60
2021/06/29 04:00:00;;;;;;;20.27;16.65;;;;;;;23.57;76.78;101029.11;1872663;77;21125;-59
2021/06/29 04:02:29;;;;;;;20.80;15.03;;;;;;;23.58;76.34;101034.86;1872675;77;21126;-61
2021/06/29 04:04:58;;;;;;;24.18;19.35;;;;;;;23.57;76.19;101029.98;1872712;77;21040;-61
2021/06/29 04:07:28;;;;;;;23.95;17.05;;;;;;;23.55;76.10;101035.12;1872599;77;21012;-61
2021/06/29 04:09:57;;;;;;;17.20;14.63;;;;;;;23.71;76.06;101026.05;1872558;76;21130;-61
2021/06/29 04:12:27;;;;;;;17.12;12.60;;;;;;;23.97;75.75;101025.55;1872652;77;21130;-61
2021/06/29 04:14:55;;;;;;;17.35;10.78;;;;;;;24.26;75.59;101025.05;1872638;77;21475;-61
2021/06/29 04:17:24;;;;;;;24.02;10.05;;;;;;;24.60;75.40;101027.81;1872666;77;21173;-61
2021/06/29 04:19:53;;;;;;;13.80;9.13;;;;;;;24.77;74.84;101026.22;1872668;76;21125;-61
2021/06/29 04:22:22;;;;;;;13.60;8.00;;;;;;;25.10;74.46;101033.42;1872688;77;21076;-62
2021/06/29 04:24:51;;;;;;;11.55;7.40;;;;;;;25.43;73.81;101034.25;1872760;77;21068;-61
2021/06/29 04:27:22;;;;;;;11.63;7.25;;;;;;;25.80;72.93;101032.45;1872758;76;21012;-60
2021/06/29 04:29:52;;;;;;;14.70;7.60;;;;;;;26.06;71.93;101035.30;1872765;77;21063;-61
2021/06/29 04:32:21;;;;;;;21.10;15.23;;;;;;;26.33;71.63;101037.55;1872770;76;21028;-61
2021/06/29 04:34:50;;;;;;;9.65;6.80;;;;;;;26.62;71.14;101033.77;1872667;76;21548;-61
2021/06/29 04:37:19;;;;;;;13.20;7.33;;;;;;;26.91;70.74;101027.55;1872709;76;21446;-61
2021/06/29 04:39:48;;;;;;;17.32;10.95;;;;;;;27.22;70.32;101035.12;1872778;77;21536;-60
2021/06/29 04:42:17;;;;;;;15.40;6.15;;;;;;;27.51;69.07;101035.28;1872714;77;21044;-59
2021/06/29 04:44:45;;;;;;;11.55;6.80;;;;;;;27.60;68.86;101034.30;1872780;77;21080;-59
2021/06/29 04:47:14;;;;;;;14.80;6.55;;;;;;;27.73;68.73;101037.37;1872743;77;21028;-61
2021/06/29 04:49:43;;;;;;;9.28;5.65;;;;;;;28.05;68.37;101041.70;1872703;77;21036;-60
2021/06/29 04:52:12;;;;;;;13.40;6.22;;;;;;;28.49;67.84;101043.57;1872745;77;21470;-60
2021/06/29 04:54:41;;;;;;;11.03;5.78;;;;;;;28.95;66.69;101044.91;1872775;76;21052;-59
2021/06/29 04:57:10;;;;;;;8.08;5.80;;;;;;;29.30;65.72;101036.02;1872723;76;21075;-60
2021/06/29 04:59:38;;;;;;;9.83;6.10;;;;;;;29.67;64.77;101043.98;1872749;77;21486;-60
2021/06/29 05:02:07;;;;;;;8.15;5.35;;;;;;;30.03;63.70;101042.95;1872658;76;21056;-60
2021/06/29 05:04:36;;;;;;;9.53;6.05;;;;;;;30.32;62.45;101035.92;1872785;76;21111;-60
2021/06/29 05:07:05;;;;;;;9.80;5.60;;;;;;;30.59;61.45;101037.25;1872915;76;21032;-60
2021/06/29 05:09:33;;;;;;;8.48;6.42;;;;;;;30.84;60.65;101035.63;1872872;76;21106;-60
2021/06/29 05:12:02;;;;;;;7.62;5.55;;;;;;;31.01;59.88;101042.63;1872769;77;21068;-61
2021/06/29 05:14:30;;;;;;;9.80;6.05;;;;;;;31.21;59.37;101048.84;1872754;77;21032;-60
2021/06/29 05:16:59;;;;;;;9.48;6.00;;;;;;;31.28;58.35;101051.14;1872767;77;21173;-60
2021/06/29 05:19:28;;;;;;;9.35;5.87;;;;;;;31.26;57.05;101043.69;1872777;77;21491;-60
2021/06/29 05:21:57;;;;;;;8.73;6.17;;;;;;;31.02;56.98;101038.03;1872724;77;21060;-60
2021/06/29 05:24:26;;;;;;;8.63;5.83;;;;;;;30.79;57.47;101041.13;1872980;76;21087;-60
2021/06/29 05:30:36;;;;;;;9.98;6.97;;;;;;;31.10;56.66;101043.39;1872713;76;21168;-60
2021/06/29 05:33:05;;;;;;;13.88;7.10;;;;;;;31.73;56.03;101045.16;1872717;75;21463;-60
2021/06/29 05:35:34;;;;;;;8.48;6.55;;;;;;;32.16;54.73;101041.13;1872682;77;21032;-60
2021/06/29 05:38:03;;;;;;;12.03;6.75;;;;;;;32.61;53.69;101033.59;1872971;76;21008;-60
2021/06/29 05:40:32;;;;;;;12.03;6.92;;;;;;;32.73;52.57;101037.95;1872752;77;21051;-59
2021/06/29 05:43:00;;;;;;;9.30;6.72;;;;;;;32.72;51.79;101035.42;1872719;76;21047;-59
2021/06/29 05:45:29;;;;;;;8.15;5.97;;;;;;;32.59;50.59;101031.58;1872850;76;21106;-60
2021/06/29 05:47:58;;;;;;;7.30;6.35;;;;;;;32.45;49.98;101036.03;1872607;76;21555;-60
2021/06/29 05:50:27;;;;;;;10.82;6.78;;;;;;;32.03;49.46;101030.94;1872756;77;21509;-60
2021/06/29 05:52:55;;;;;;;13.30;6.58;;;;;;;31.98;49.88;101029.80;1872752;77;21040;-60
2021/06/29 05:55:24;;;;;;;10.60;6.75;;;;;;;31.92;50.31;101032.26;1872733;77;21060;-60
2021/06/29 05:57:53;;;;;;;8.95;6.40;;;;;;;31.63;50.80;101035.08;1872794;76;21478;-60
2021/06/29 06:00:22;;;;;;;12.33;6.50;;;;;;;31.35;50.35;101035.75;1872744;75;21118;-61
2021/06/29 06:02:51;;;;;;;10.98;6.42;;;;;;;31.15;50.81;101042.28;1872786;77;21105;-60
2021/06/29 06:05:20;;;;;;;7.40;5.80;;;;;;;30.56;51.32;101045.76;1872791;77;21139;-60
2021/06/29 06:07:54;;;;;;;7.80;6.17;;;;;;;29.98;52.13;101046.19;1872699;77;21064;-60
2021/06/29 06:10:20;;;;;;;8.68;6.00;;;;;;;29.45;52.98;101041.03;1872474;76;21125;-61
2021/06/29 06:12:48;;;;;;;9.40;5.70;;;;;;;29.06;53.64;101040.47;1872861;77;21060;-61
2021/06/29 06:15:17;;;;;;;11.00;5.85;;;;;;;28.71;54.45;101036.32;1872675;77;21114;-61
2021/06/29 06:17:47;;;;;;;10.08;6.10;;;;;;;28.40;55.12;101040.53;1872729;77;21134;-61
2021/06/29 06:20:18;;;;;;;11.18;6.65;;;;;;;28.14;55.98;101037.15;1872731;76;21058;-61
2021/06/29 06:22:47;;;;;;;11.85;6.20;;;;;;;27.95;56.45;101041.86;1872715;76;21106;-61
2021/06/29 06:25:16;;;;;;;11.43;6.53;;;;;;;27.82;56.78;101042.83;1872673;76;21415;-61
2021/06/29 06:27:45;;;;;;;6.80;5.37;;;;;;;27.73;56.87;101040.08;1872674;77;21143;-61
2021/06/29 06:30:16;;;;;;;10.10;5.80;;;;;;;28.50;56.32;101029.02;1872688;76;21145;-61
2021/06/29 06:32:44;;;;;;;6.83;4.97;;;;;;;29.55;55.32;101034.05;1872715;77;21113;-61
2021/06/29 06:35:14;;;;;;;8.23;5.25;;;;;;;30.53;52.78;101036.12;1872677;76;21463;-61
2021/06/29 06:37:43;;;;;;;11.40;5.42;;;;;;;31.48;50.95;101031.87;1872722;76;21031;-61
2021/06/29 06:40:13;;;;;;;9.70;5.95;;;;;;;31.86;49.58;101031.68;1872701;76;21028;-61
2021/06/29 06:42:42;;;;;;;10.28;6.90;;;;;;;32.34;48.13;101026.20;1872697;76;21032;-61
2021/06/29 06:45:12;;;;;;;10.18;5.50;;;;;;;33.00;46.88;101019.89;1872729;77;21056;-61
2021/06/29 06:47:41;;;;;;;9.13;5.40;;;;;;;33.02;46.09;101014.23;1872763;77;21036;-61
2021/06/29 06:50:11;;;;;;;9.15;6.20;;;;;;;32.59;45.95;101015.23;1872686;77;21056;-61
2021/06/29 06:52:39;;;;;;;10.80;5.95;;;;;;;32.24;46.69;101008.31;1872724;77;21102;-61
2021/06/29 06:55:09;;;;;;;8.13;5.58;;;;;;;32.32;47.06;101009.52;1872829;77;21060;-61
2021/06/29 06:57:41;;;;;;;7.80;5.90;;;;;;;32.30;46.76;101011.60;1872632;76;21087;-61
2021/06/29 07:00:11;;;;;;;9.55;5.85;;;;;;;31.91;47.21;101021.06;1872697;76;21059;-60
2021/06/29 07:02:40;;;;;;;9.10;5.30;;;;;;;31.60;47.51;101023.23;1872657;77;21064;-61
2021/06/29 07:05:10;;;;;;;9.95;5.03;;;;;;;32.09;47.69;101026.09;1872558;75;21051;-61
2021/06/29 07:07:38;;;;;;;9.90;5.08;;;;;;;32.89;47.02;101028.63;1872613;75;21175;-60
2021/06/29 07:10:09;;;;;;;6.22;5.03;;;;;;;33.53;44.90;101031.58;1872718;77;21079;-60
2021/06/29 07:12:37;;;;;;;6.03;5.22;;;;;;;33.60;43.54;101024.78;1872721;77;21102;-60
2021/06/29 07:15:08;;;;;;;11.43;6.15;;;;;;;33.08;43.89;101029.25;1872805;77;21032;-60
2021/06/29 07:17:38;;;;;;;12.13;6.47;;;;;;;32.75;44.32;101035.03;1872684;77;21067;-60
2021/06/29 07:20:08;;;;;;;6.97;5.22;;;;;;;32.45;44.72;101032.48;1872714;77;21541;-60
2021/06/29 07:22:38;;;;;;;13.50;8.85;;;;;;;31.89;45.12;101034.03;1872808;76;21079;-60
2021/06/29 07:25:08;;;;;;;14.98;7.97;;;;;;;30.96;46.47;101030.94;1872711;77;21251;-60
2021/06/29 07:27:37;;;;;;;17.50;7.87;;;;;;;30.12;48.02;101035.56;1872794;77;21080;-60
2021/06/29 07:30:10;;;;;;;13.98;6.90;;;;;;;29.49;49.31;101027.44;1872583;77;21032;-60
2021/06/29 07:32:42;;;;;;;14.83;5.87;;;;;;;29.00;50.29;101033.05;1872667;77;21036;-59
2021/06/29 07:35:12;;;;;;;12.33;5.50;;;;;;;28.59;50.49;101035.81;1872745;76;21036;-60
2021/06/29 07:37:41;;;;;;;11.38;5.37;;;;;;;28.32;50.98;101038.34;1872780;77;21110;-59
2021/06/29 07:40:10;;;;;;;10.70;5.55;;;;;;;28.25;51.54;101043.58;1872676;77;21020;-60
2021/06/29 07:42:39;;;;;;;14.10;6.12;;;;;;;28.21;51.38;101047.64;1872601;76;21008;-60
2021/06/29 07:45:09;;;;;;;11.45;5.08;;;;;;;28.06;51.70;101044.24;1872726;77;21005;-60
2021/06/29 07:47:38;;;;;;;13.70;6.25;;;;;;;28.00;51.93;101038.64;1872773;76;21110;-60
2021/06/29 07:50:09;;;;;;;8.90;6.30;;;;;;;27.99;52.42;101033.74;1872742;76;21342;-60
2021/06/29 07:52:38;;;;;;;6.03;4.50;;;;;;;28.44;52.33;101037.84;1872636;77;21040;-60
2021/06/29 07:55:08;;;;;;;10.50;6.12;;;;;;;29.55;50.57;101034.89;1872668;76;21545;-60
2021/06/29 07:57:37;;;;;;;19.00;8.40;;;;;;;30.51;48.84;101038.70;1872803;76;21071;-60
2021/06/29 08:00:08;;;;;;;25.65;15.23;;;;;;;31.32;47.16;101030.19;1889352;76;21204;-59
2021/06/29 08:02:39;;;;;;;9.63;5.85;;;;;;;32.02;46.17;101043.34;1891002;75;21062;-59
2021/06/29 08:05:09;;;;;;;7.00;5.60;;;;;;;32.32;45.00;101042.22;1891518;75;21551;-60
2021/06/29 08:07:37;;;;;;;24.67;10.25;;;;;;;32.55;44.46;101038.41;1891375;76;21168;-59
2021/06/29 08:10:08;;;;;;;11.75;5.50;;;;;;;32.24;44.46;101034.69;1891533;76;21467;-60
2021/06/29 08:12:37;;;;;;;11.95;5.70;;;;;;;31.94;44.88;101040.24;1891599;76;21145;-60
2021/06/29 08:15:07;;;;;;;15.68;8.80;;;;;;;31.45;45.20;101043.12;1891519;76;21071;-60
2021/06/29 08:17:36;;;;;;;15.35;8.48;;;;;;;31.13;45.88;101048.44;1891511;76;21039;-60
2021/06/29 08:20:06;;;;;;;7.95;5.37;;;;;;;30.71;46.58;101043.94;1891553;75;21109;-60
2021/06/29 08:22:35;;;;;;;18.77;10.15;;;;;;;30.49;46.83;101045.67;1891591;76;21031;-60
2021/06/29 08:25:06;;;;;;;18.42;3.92;;;;;;;30.85;47.53;101071.31;1891606;76;21040;-60
2021/06/29 08:27:35;;;;;;;15.40;3.35;;;;;;;31.12;46.95;101069.88;1891608;75;21109;-59
2021/06/29 08:30:06;;;;;;;10.65;2.80;;;;;;;30.77;46.40;101066.29;1891506;76;21031;-59
2021/06/29 08:32:37;;;;;;;7.55;2.70;;;;;;;30.26;47.09;101066.54;1889826;75;21551;-60
2021/06/29 08:35:08;;;;;;;5.83;2.98;;;;;;;29.67;48.02;101064.34;1891482;75;21039;-59
2021/06/29 08:37:37;;;;;;;5.25;2.87;;;;;;;29.32;48.97;101067.36;1891619;76;21101;-60
2021/06/29 08:40:09;;;;;;;5.60;3.10;;;;;;;29.17;49.46;101056.39;1891604;75;21117;-60
2021/06/29 08:42:38;;;;;;;4.07;2.80;;;;;;;29.13;50.08;101054.19;1891781;76;21097;-60
2021/06/29 08:45:10;;;;;;;8.25;3.10;;;;;;;28.94;50.28;101056.27;1891430;76;21482;-60
2021/06/29 08:47:39;;;;;;;6.42;3.30;;;;;;;28.80;50.49;101057.80;1891763;75;21043;-60
2021/06/29 08:50:11;;;;;;;4.20;2.67;;;;;;;28.64;50.78;101068.17;1891587;76;21149;-59
2021/06/29 08:52:40;;;;;;;3.35;2.60;;;;;;;28.55;50.82;101067.84;1891735;76;21007;-59
2021/06/29 08:55:10;;;;;;;9.28;2.80;;;;;;;28.49;50.71;101072.01;1891502;76;21533;-59
2021/06/29 08:57:40;;;;;;;15.45;3.42;;;;;;;28.57;50.43;101073.93;1891497;76;21097;-60
2021/06/29 09:00:11;;;;;;;11.45;3.83;;;;;;;29.02;50.34;101058.11;1891472;75;21094;-60
2021/06/29 09:02:41;;;;;;;6.20;2.80;;;;;;;29.36;49.74;101052.94;1891594;76;21047;-60
2021/06/29 09:05:18;;;;;;;5.33;3.15;;;;;;;29.51;49.46;101059.33;1891468;76;21540;-60
2021/06/29 09:07:49;;;;;;;7.97;3.50;;;;;;;29.54;49.02;101049.47;1883342;75;21039;-61
2021/06/29 09:10:17;;;;;;;9.68;3.58;;;;;;;29.80;48.92;101045.62;1891428;76;21094;-60
2021/06/29 09:12:55;;;;;;;4.67;2.77;;;;;;;30.49;48.44;101038.02;1891517;75;21074;-60
2021/06/29 09:15:32;;;;;;;8.35;4.17;;;;;;;30.61;47.53;101051.49;1891513;75;21023;-60
2021/06/29 09:18:09;;;;;;;7.53;3.20;;;;;;;30.30;47.25;101057.83;1891597;75;21124;-60
2021/06/29 09:20:41;;;;;;;5.83;2.70;;;;;;;29.94;47.19;101057.08;1891403;76;21011;-59
2021/06/29 09:23:21;;;;;;;8.65;3.90;;;;;;;29.60;46.66;101060.12;1891485;75;21027;-60
2021/06/29 09:26:02;;;;;;;7.22;2.75;;;;;;;29.48;46.53;101052.06;1891467;76;21556;-60
2021/06/29 09:28:38;;;;;;;10.28;2.47;;;;;;;29.65;46.37;101035.50;1891462;75;21067;-59
2021/06/29 09:31:09;;;;;;;5.45;2.27;;;;;;;30.32;46.07;101042.22;1890570;75;21039;-60
2021/06/29 09:33:44;;;;;;;6.78;2.10;;;;;;;30.39;45.36;101044.55;1891503;76;21086;-60
2021/06/29 09:36:18;;;;;;;9.48;2.22;;;;;;;30.00;45.44;101057.70;1891504;76;21477;-60
2021/06/29 09:38:48;;;;;;;10.75;2.72;;;;;;;29.64;46.08;101061.48;1891533;75;21042;-60
2021/06/29 09:41:23;;;;;;;7.80;2.37;;;;;;;29.41;47.21;101058.69;1891384;75;21101;-61
2021/06/29 09:43:54;;;;;;;5.42;2.80;;;;;;;29.18;48.00;101062.66;1887971;75;21091;-60
2021/06/29 09:46:26;;;;;;;7.30;2.92;;;;;;;29.14;48.67;101051.34;1891480;75;21043;-59
2021/06/29 09:49:02;;;;;;;3.92;2.80;;;;;;;29.04;48.86;101053.36;1891727;76;21099;-60
2021/06/29 09:51:34;;;;;;;6.55;2.58;;;;;;;29.26;48.96;101049.92;1891208;75;21065;-60
2021/06/29 09:54:08;;;;;;;6.90;2.85;;;;;;;29.49;48.79;101049.14;1891457;76;21110;-60
2021/06/29 09:56:46;;;;;;;7.25;2.75;;;;;;;29.68;48.54;101048.38;1891496;76;20992;-60
2021/06/29 09:59:18;;;;;;;7.83;2.92;;;;;;;29.81;48.07;101061.74;1888729;75;21067;-60
2021/06/29 10:01:48;;;;;;;5.10;2.95;;;;;;;29.65;47.96;101066.70;1891494;75;21016;-60
2021/06/29 10:04:17;;;;;;;6.45;2.75;;;;;;;29.38;48.17;101067.16;1891352;76;21027;-60
2021/06/29 10:06:48;;;;;;;4.92;2.62;;;;;;;29.18;48.18;101076.21;1891483;76;21137;-60
2021/06/29 10:09:17;;;;;;;6.33;3.05;;;;;;;29.04;48.30;101075.05;1891507;76;21051;-60
2021/06/29 10:11:52;;;;;;;4.50;2.85;;;;;;;28.99;48.46;101067.94;1891605;76;21105;-60
2021/06/29 10:14:18;;;;;;;8.00;3.47;;;;;;;28.95;48.19;101067.43;1891434;75;21078;-60
2021/06/29 10:16:49;;;;;;;6.58;2.80;;;;;;;28.81;47.69;101074.90;1891663;76;21101;-59
2021/06/29 10:19:48;;;;;;;9.18;3.22;;;;;;;28.68;47.94;101075.42;1891579;76;21039;-60
2021/06/29 10:22:06;;;;;;;7.85;3.10;;;;;;;28.64;48.10;101080.85;1888638;75;21540;-60
2021/06/29 10:24:37;;;;;;;4.62;3.12;;;;;;;28.59;48.23;101077.80;1891461;76;21039;-60
2021/06/29 10:27:09;;;;;;;6.00;3.33;;;;;;;28.59;48.91;101079.15;1891360;75;21104;-60
2021/06/29 10:29:38;;;;;;;4.40;3.10;;;;;;;28.69;49.16;101081.19;1891438;76;21470;-59
2021/06/29 10:32:11;;;;;;;4.97;3.33;;;;;;;28.95;49.33;101072.02;1891459;76;21509;-60
2021/06/29 10:34:41;;;;;;;6.25;3.15;;;;;;;29.19;49.24;101071.14;1891455;76;21047;-60
2021/06/29 10:37:10;;;;;;;3.92;2.80;;;;;;;29.53;49.48;101057.77;1891494;76;21023;-60
2021/06/29 10:39:39;;;;;;;7.00;3.17;;;;;;;30.07;48.68;101052.94;1891341;75;21180;-61
2021/06/29 10:42:14;;;;;;;4.12;2.87;;;;;;;30.57;47.85;101055.61;1891463;76;21489;-60
2021/06/29 10:44:45;;;;;;;6.22;3.20;;;;;;;30.99;47.26;101044.70;1891440;76;21023;-60
2021/06/29 10:47:23;;;;;;;5.15;2.92;;;;;;;31.08;46.75;101047.65;1891403;75;21043;-60
2021/06/29 10:49:54;;;;;;;7.53;3.05;;;;;;;31.07;46.18;101039.16;1891440;76;21152;-60
2021/06/29 10:52:30;;;;;;;5.72;3.12;;;;;;;31.07;46.42;101037.79;1891310;76;21529;-60
2021/06/29 10:55:00;;;;;;;6.28;3.35;;;;;;;30.98;46.32;101034.31;1891428;76;21490;-60
2021/06/29 10:57:41;;;;;;;6.67;3.40;;;;;;;30.88;46.38;101041.05;1891549;75;21082;-60
2021/06/29 11:00:18;;;;;;;8.48;3.10;;;;;;;30.70;46.56;101049.02;1889773;75;21172;-60
2021/06/29 11:03:05;;;;;;;5.35;3.30;;;;;;;30.50;46.24;101047.86;1868768;76;21072;-59
2021/06/29 11:05:45;;;;;;;5.05;3.10;;;;;;;30.36;46.32;101042.21;1872639;77;21008;-60
2021/06/29 11:08:16;;;;;;;6.12;3.05;;;;;;;30.33;46.30;101046.64;1872673;77;21420;-60
2021/06/29 11:10:48;;;;;;;4.25;3.20;;;;;;;30.28;46.19;101042.75;1872745;77;21028;-59
2021/06/29 11:13:20;;;;;;;4.60;3.00;;;;;;;30.17;46.62;101053.52;1872799;76;21095;-60
2021/06/29 11:15:56;;;;;;;7.75;3.10;;;;;;;30.02;46.77;101059.73;1872690;76;21110;-59
2021/06/29 11:18:46;;;;;;;4.83;3.17;;;;;;;29.81;46.80;101066.33;1872716;76;21080;-60
2021/06/29 11:21:24;;;;;;;9.60;3.27;;;;;;;29.78;46.60;101061.25;1872693;76;21110;-60
2021/06/29 11:23:52;;;;;;;3.40;2.87;;;;;;;29.97;45.94;101055.38;1872773;77;21085;-60
2021/06/29 11:26:23;;;;;;;7.47;2.75;;;;;;;30.10;44.81;101045.77;1872641;77;21110;-60
2021/06/29 11:28:54;;;;;;;4.53;3.15;;;;;;;30.29;44.43;101048.01;1872668;76;21133;-60
2021/06/29 11:31:30;;;;;;;4.30;2.60;;;;;;;30.36;44.56;101043.57;1872299;76;21040;-60
2021/06/29 11:33:58;;;;;;;3.65;2.30;;;;;;;30.48;44.91;101049.92;1872450;76;21068;-60
2021/06/29 11:36:30;;;;;;;6.85;2.58;;;;;;;30.62;43.23;101045.05;1872666;76;21000;-59